Time;durP1;ratioP1;P1;durP2;ratioP2;P2;SDS_P1;SDS_P2;PMS_P1;PMS_P2;Temp;Humidity;BMP_temperature;BMP_pressure;BME280_temperature;BME280_humidity;BME280_pressure;Samples;Min_cycle;Max_cycle;Signal;HPM_P1;HPM_P2
2022/09/14 00:00:45;;;;;;;10.45;2.63;;;18.70;99.90;;;;;;5034066;28;20026;-72
2022/09/14 00:03:11;;;;;;;10.25;2.00;;;18.70;99.90;;;;;;5033577;28;20482;-72
2022/09/14 00:05:37;;;;;;;10.40;2.22;;;18.70;99.90;;;;;;5033674;28;20022;-72
2022/09/14 00:08:03;;;;;;;5.78;1.92;;;19.00;99.90;;;;;;5033241;28;20116;-72
2022/09/14 00:10:29;;;;;;;9.02;2.28;;;19.00;99.90;;;;;;5033741;28;20026;-71
2022/09/14 00:12:55;;;;;;;6.45;2.00;;;18.90;99.90;;;;;;5033059;28;20032;-72
2022/09/14 00:15:21;;;;;;;6.90;2.55;;;18.60;99.90;;;;;;5033563;28;20037;-72
2022/09/14 00:17:47;;;;;;;10.45;2.30;;;18.60;99.90;;;;;;5031960;28;20120;-72
2022/09/14 00:20:12;;;;;;;8.00;2.30;;;18.60;99.90;;;;;;5033564;28;20099;-72
2022/09/14 00:22:38;;;;;;;10.52;2.55;;;18.60;99.90;;;;;;5032916;28;20025;-71
2022/09/14 00:25:04;;;;;;;12.25;2.20;;;18.40;99.90;;;;;;5033372;28;20029;-72
2022/09/14 00:27:31;;;;;;;8.10;1.90;;;18.40;99.90;;;;;;5033469;28;20488;-72
2022/09/14 00:29:57;;;;;;;7.70;2.20;;;18.30;99.90;;;;;;5031810;28;20032;-70
2022/09/14 00:32:23;;;;;;;7.05;1.85;;;18.30;99.90;;;;;;5033125;28;20033;-72
2022/09/14 00:34:48;;;;;;;10.40;2.40;;;18.30;99.90;;;;;;5033191;28;20381;-71
2022/09/14 00:37:14;;;;;;;6.90;2.10;;;18.20;99.90;;;;;;5032819;28;20355;-72
2022/09/14 00:39:40;;;;;;;15.32;2.60;;;18.40;99.90;;;;;;5033151;28;20454;-72
2022/09/14 00:42:06;;;;;;;8.30;1.88;;;18.50;99.90;;;;;;5032914;28;20576;-72
2022/09/14 00:44:32;;;;;;;8.32;2.40;;;18.30;99.90;;;;;;5033074;28;20048;-72
2022/09/14 00:47:01;;;;;;;7.20;2.00;;;18.10;99.90;;;;;;5032142;28;20029;-71
2022/09/14 00:49:32;;;;;;;8.55;2.38;;;18.00;99.90;;;;;;5031712;28;20486;-70
2022/09/14 00:52:02;;;;;;;6.78;2.00;;;18.00;99.90;;;;;;5031331;28;20496;-72
2022/09/14 00:54:29;;;;;;;12.02;2.28;;;18.00;99.90;;;;;;5032849;28;20038;-72
2022/09/14 00:56:58;;;;;;;11.15;2.80;;;18.00;99.90;;;;;;5032910;28;20381;-72
2022/09/14 00:59:28;;;;;;;9.23;2.40;;;18.10;99.90;;;;;;5032757;28;20075;-72
2022/09/14 01:01:53;;;;;;;7.05;2.10;;;18.10;99.90;;;;;;5033640;28;20029;-72
2022/09/14 01:04:21;;;;;;;10.15;3.15;;;18.10;99.90;;;;;;5032623;28;20025;-71
2022/09/14 01:07:02;;;;;;;5.57;2.28;;;18.00;99.90;;;;;;5032654;28;20029;-72
2022/09/14 01:09:46;;;;;;;9.23;2.20;;;18.10;99.90;;;;;;5032853;28;20072;-72
2022/09/14 01:12:24;;;;;;;9.02;2.92;;;18.10;99.90;;;;;;5032573;28;20022;-72
2022/09/14 01:15:15;;;;;;;8.27;2.40;;;18.00;99.90;;;;;;5032465;28;20068;-71
2022/09/14 01:18:02;;;;;;;10.95;2.75;;;18.10;99.90;;;;;;5032727;28;20030;-72
2022/09/14 01:20:50;;;;;;;10.00;2.50;;;17.90;99.90;;;;;;5032421;28;20026;-72
2022/09/14 01:23:28;;;;;;;9.52;2.30;;;18.30;99.90;;;;;;5032602;28;20604;-72
2022/09/14 01:26:12;;;;;;;8.80;2.40;;;18.40;99.90;;;;;;5032597;28;20033;-72
2022/09/14 01:29:05;;;;;;;11.07;2.72;;;18.30;99.90;;;;;;5032435;28;20021;-72
2022/09/14 01:31:57;;;;;;;8.93;2.22;;;18.30;99.90;;;;;;5032537;28;20045;-71
2022/09/14 01:34:39;;;;;;;10.25;2.28;;;18.10;99.90;;;;;;5003793;28;20092;-72
2022/09/14 01:37:39;;;;;;;7.07;2.22;;;17.90;99.90;;;;;;5032608;28;20022;-72
2022/09/14 01:40:15;;;;;;;10.98;3.17;;;17.70;99.90;;;;;;5032590;28;20033;-71
2022/09/14 01:42:43;;;;;;;7.07;2.60;;;17.80;99.90;;;;;;5032503;28;20104;-72
2022/09/14 01:45:15;;;;;;;8.15;2.28;;;17.60;99.90;;;;;;5032384;28;20377;-72
2022/09/14 01:48:00;;;;;;;10.98;3.08;;;17.70;99.90;;;;;;5032698;28;20036;-72
2022/09/14 01:50:34;;;;;;;8.93;2.53;;;17.70;99.90;;;;;;5032278;28;20034;-72
2022/09/14 01:53:07;;;;;;;7.68;2.42;;;17.70;99.90;;;;;;5030918;28;20045;-71
2022/09/14 01:55:42;;;;;;;10.90;2.72;;;17.60;99.90;;;;;;5032236;28;20029;-71
2022/09/14 01:58:17;;;;;;;10.38;3.10;;;17.50;99.90;;;;;;5032976;28;20104;-71
2022/09/14 02:00:45;;;;;;;11.07;2.80;;;17.80;99.90;;;;;;5034501;28;20026;-71
2022/09/14 02:03:18;;;;;;;11.50;3.35;;;18.10;99.90;;;;;;5035696;28;20486;-71
2022/09/14 02:06:02;;;;;;;10.75;3.15;;;18.20;99.90;;;;;;5035793;28;20033;-71
2022/09/14 02:08:29;;;;;;;9.98;3.65;;;18.00;99.90;;;;;;5035988;28;20492;-71
2022/09/14 02:10:56;;;;;;;9.93;4.03;;;18.10;99.90;;;;;;5035641;28;20462;-72
2022/09/14 02:13:23;;;;;;;14.15;4.32;;;18.00;99.90;;;;;;5034679;28;20041;-71
2022/09/14 02:15:49;;;;;;;8.63;3.40;;;18.10;99.90;;;;;;5018161;28;20036;-69
2022/09/14 02:18:15;;;;;;;9.25;3.60;;;18.10;99.90;;;;;;5035493;28;20070;-72
2022/09/14 02:20:51;;;;;;;8.32;3.65;;;18.00;99.90;;;;;;5035880;28;20029;-71
2022/09/14 02:23:17;;;;;;;11.52;3.67;;;17.70;99.90;;;;;;5035611;28;20065;-72
2022/09/14 02:25:44;;;;;;;12.15;4.28;;;17.40;99.90;;;;;;5035691;28;20022;-71
2022/09/14 02:28:10;;;;;;;15.10;4.82;;;17.60;99.90;;;;;;5035488;28;20025;-72
2022/09/14 02:30:47;;;;;;;9.10;3.47;;;17.60;99.90;;;;;;5035466;28;20094;-71
2022/09/14 02:33:43;;;;;;;15.13;5.72;;;17.70;99.90;;;;;;5034757;28;20179;-72
2022/09/14 02:36:24;;;;;;;11.90;4.47;;;17.80;99.90;;;;;;5035495;28;20033;-72
2022/09/14 02:39:22;;;;;;;15.20;5.90;;;17.70;99.90;;;;;;5035290;28;20064;-71
2022/09/14 02:41:58;;;;;;;11.60;5.38;;;17.80;99.90;;;;;;5014425;28;20068;-71
2022/09/14 02:44:41;;;;;;;16.40;4.80;;;17.90;99.90;;;;;;5035418;28;20029;-72
2022/09/14 02:47:57;;;;;;;17.05;5.25;;;17.70;99.90;;;;;;5034709;28;20040;-71
2022/09/14 02:50:38;;;;;;;13.25;5.20;;;17.60;99.90;;;;;;5021614;28;20045;-72
2022/09/14 02:53:17;;;;;;;15.30;4.57;;;17.80;99.90;;;;;;5035014;28;20379;-71
2022/09/14 02:55:58;;;;;;;11.60;4.32;;;17.90;99.90;;;;;;5033809;28;20027;-72
2022/09/14 02:58:32;;;;;;;15.73;4.83;;;18.00;99.90;;;;;;5014017;28;20041;-72
2022/09/14 03:00:57;;;;;;;11.40;4.35;;;18.00;99.90;;;;;;5014537;28;20021;-71
2022/09/14 03:03:23;;;;;;;10.10;4.00;;;17.90;99.90;;;;;;5015235;28;20444;-72
2022/09/14 03:05:49;;;;;;;16.27;5.07;;;17.80;99.90;;;;;;5014936;28;20093;-72
2022/09/14 03:08:14;;;;;;;12.70;4.57;;;17.70;99.90;;;;;;5015022;28;20029;-71
2022/09/14 03:10:42;;;;;;;17.50;4.88;;;17.70;99.90;;;;;;5014328;28;20022;-72
2022/09/14 03:13:08;;;;;;;12.00;5.50;;;17.90;99.90;;;;;;5014775;28;20431;-71
2022/09/14 03:15:34;;;;;;;10.23;4.10;;;18.10;99.90;;;;;;5014517;28;20112;-72
2022/09/14 03:18:00;;;;;;;11.90;4.25;;;18.00;99.90;;;;;;5014600;28;20030;-72
2022/09/14 03:20:28;;;;;;;9.73;4.30;;;17.80;99.90;;;;;;5014959;28;20033;-72
2022/09/14 03:22:54;;;;;;;14.63;4.88;;;17.70;99.90;;;;;;5014664;28;20033;-72
2022/09/14 03:25:21;;;;;;;12.90;4.32;;;17.30;99.90;;;;;;5014655;28;20033;-72
2022/09/14 03:27:52;;;;;;;17.98;4.57;;;17.30;99.90;;;;;;5014637;28;20022;-72
2022/09/14 03:30:19;;;;;;;13.45;4.75;;;17.50;99.90;;;;;;5013957;28;20041;-70
2022/09/14 03:32:46;;;;;;;11.30;4.82;;;17.40;99.90;;;;;;5014376;28;20383;-71
2022/09/14 03:35:12;;;;;;;12.95;4.53;;;17.30;99.90;;;;;;5014604;28;20060;-71
2022/09/14 03:37:40;;;;;;;13.63;5.32;;;17.50;99.90;;;;;;5014306;28;20018;-70
2022/09/14 03:40:07;;;;;;;13.75;4.03;;;17.70;99.90;;;;;;5014370;28;20036;-71
2022/09/14 03:42:33;;;;;;;13.35;4.55;;;17.80;99.90;;;;;;5012836;28;20022;-71
2022/09/14 03:44:59;;;;;;;11.95;4.22;;;17.80;99.90;;;;;;5014174;28;20061;-71
2022/09/14 03:47:25;;;;;;;11.23;3.60;;;17.60;99.90;;;;;;5014155;28;20022;-72
2022/09/14 03:49:51;;;;;;;12.90;4.50;;;17.50;99.90;;;;;;5014171;28;20082;-72
2022/09/14 03:52:18;;;;;;;10.40;3.88;;;17.50;99.90;;;;;;5013949;28;20363;-72
2022/09/14 03:54:44;;;;;;;12.48;4.85;;;17.70;99.90;;;;;;5014039;28;20026;-71
2022/09/14 03:57:10;;;;;;;10.02;3.80;;;17.50;99.90;;;;;;5014152;28;20383;-72
2022/09/14 03:59:36;;;;;;;13.70;4.03;;;17.50;99.90;;;;;;5013603;28;20034;-71
2022/09/14 04:02:02;;;;;;;13.77;4.93;;;17.30;99.90;;;;;;5013773;28;20026;-71
2022/09/14 04:04:28;;;;;;;10.55;3.97;;;17.40;99.90;;;;;;5013860;28;20018;-71
2022/09/14 04:06:54;;;;;;;16.38;4.80;;;17.30;99.90;;;;;;5013879;28;20037;-72
2022/09/14 04:09:20;;;;;;;17.08;4.50;;;17.50;99.90;;;;;;5013913;28;20025;-72
2022/09/14 04:11:46;;;;;;;15.90;5.50;;;17.60;99.90;;;;;;5013825;28;20033;-72
2022/09/14 04:14:12;;;;;;;15.27;5.07;;;17.60;99.90;;;;;;5013326;28;20049;-72
2022/09/14 04:16:39;;;;;;;16.17;5.05;;;17.60;99.90;;;;;;5012301;28;20038;-72
2022/09/14 04:19:05;;;;;;;12.05;5.50;;;17.70;99.90;;;;;;5013522;28;20054;-71
2022/09/14 04:21:32;;;;;;;15.30;5.25;;;17.90;99.90;;;;;;5013555;28;20430;-71
2022/09/14 04:23:58;;;;;;;14.73;5.25;;;17.80;99.90;;;;;;5013654;28;20113;-71
2022/09/14 04:26:26;;;;;;;14.60;5.10;;;17.80;99.90;;;;;;5013771;28;20097;-72
2022/09/14 04:28:52;;;;;;;11.70;5.20;;;17.70;99.90;;;;;;5012862;28;20068;-72
2022/09/14 04:31:18;;;;;;;11.48;5.80;;;17.60;99.90;;;;;;5013436;28;20052;-72
2022/09/14 04:33:44;;;;;;;12.52;4.40;;;17.60;99.90;;;;;;5013274;28;20486;-72
2022/09/14 04:36:15;;;;;;;12.02;4.53;;;17.40;99.90;;;;;;5013590;28;20366;-71
2022/09/14 04:38:42;;;;;;;11.68;5.00;;;17.40;99.90;;;;;;5013254;28;20030;-72
2022/09/14 04:41:10;;;;;;;14.82;5.40;;;17.70;99.90;;;;;;5013296;28;20045;-71
2022/09/14 04:43:37;;;;;;;10.30;4.47;;;17.90;99.90;;;;;;5011765;28;20520;-72
2022/09/14 04:46:05;;;;;;;15.60;6.18;;;17.70;99.90;;;;;;5013438;28;20026;-72
2022/09/14 04:48:33;;;;;;;10.20;4.82;;;17.50;99.90;;;;;;5013386;28;20037;-71
2022/09/14 04:51:04;;;;;;;12.32;5.00;;;17.40;99.90;;;;;;5013201;28;20029;-72
2022/09/14 04:53:31;;;;;;;12.60;5.30;;;17.30;99.90;;;;;;5013073;28;20044;-72
2022/09/14 04:56:05;;;;;;;14.05;5.28;;;17.40;99.90;;;;;;5013006;28;20022;-71
2022/09/14 04:58:32;;;;;;;12.13;4.85;;;17.30;99.90;;;;;;5012952;28;20120;-72
2022/09/14 05:01:07;;;;;;;14.35;4.70;;;17.30;99.90;;;;;;5013078;28;20117;-72
2022/09/14 05:03:33;;;;;;;15.45;4.82;;;17.60;99.90;;;;;;5013187;28;20041;-72
2022/09/14 05:06:11;;;;;;;13.48;5.40;;;17.40;99.90;;;;;;5012682;28;20052;-72
2022/09/14 05:08:37;;;;;;;9.85;4.93;;;17.30;99.90;;;;;;5012985;28;20048;-72
2022/09/14 05:11:07;;;;;;;10.90;4.78;;;17.30;99.90;;;;;;5011560;28;20360;-71
2022/09/14 05:13:33;;;;;;;11.98;4.82;;;17.30;99.90;;;;;;5012769;28;20104;-72
2022/09/14 05:16:07;;;;;;;14.52;5.03;;;17.50;99.90;;;;;;5013150;28;20069;-71
2022/09/14 05:18:33;;;;;;;14.38;5.32;;;17.40;99.90;;;;;;5012807;28;20534;-72
2022/09/14 05:21:06;;;;;;;7.85;5.15;;;17.10;99.90;;;;;;5012817;28;20069;-72
2022/09/14 05:23:32;;;;;;;11.07;5.32;;;16.90;99.90;;;;;;5012815;28;20053;-72
2022/09/14 05:25:59;;;;;;;10.00;4.97;;;17.10;99.90;;;;;;5012679;28;20029;-72
2022/09/14 05:28:25;;;;;;;13.50;5.47;;;17.30;99.90;;;;;;5011458;28;20076;-71
2022/09/14 05:30:51;;;;;;;13.57;5.60;;;17.60;99.90;;;;;;5011363;28;20112;-72
2022/09/14 05:33:17;;;;;;;12.05;5.20;;;17.40;99.90;;;;;;5013674;28;20077;-71
2022/09/14 05:35:44;;;;;;;13.88;5.72;;;17.50;99.90;;;;;;5015442;28;20393;-72
2022/09/14 05:38:09;;;;;;;16.52;5.90;;;17.70;99.90;;;;;;5016526;28;20504;-71
2022/09/14 05:40:35;;;;;;;10.25;4.97;;;17.70;99.90;;;;;;5016219;28;20045;-71
2022/09/14 05:43:01;;;;;;;18.67;4.90;;;17.80;99.90;;;;;;5015203;28;20113;-72
2022/09/14 05:45:26;;;;;;;15.98;5.88;;;17.80;99.90;;;;;;5016482;28;20040;-71
2022/09/14 05:47:52;;;;;;;15.63;5.13;;;17.60;99.90;;;;;;5016680;28;20514;-71
2022/09/14 05:50:18;;;;;;;11.57;5.10;;;17.40;99.90;;;;;;5016307;28;20026;-72
2022/09/14 05:52:44;;;;;;;9.57;4.45;;;17.10;99.90;;;;;;5016155;28;20430;-71
2022/09/14 05:55:09;;;;;;;17.10;5.68;;;17.20;99.90;;;;;;5015886;28;20045;-70
2022/09/14 05:57:35;;;;;;;17.25;5.43;;;17.30;99.90;;;;;;5015618;28;20014;-71
2022/09/14 06:00:02;;;;;;;14.35;5.70;;;17.10;99.90;;;;;;5016251;28;20030;-71
2022/09/14 06:02:37;;;;;;;13.48;4.70;;;17.20;99.90;;;;;;5015840;28;20045;-71
2022/09/14 06:05:03;;;;;;;13.82;5.32;;;17.40;99.90;;;;;;5015970;28;20386;-72
2022/09/14 06:07:29;;;;;;;13.90;4.90;;;17.50;99.90;;;;;;5016146;28;20024;-72
2022/09/14 06:09:55;;;;;;;15.45;4.03;;;17.40;99.90;;;;;;5015482;28;20478;-71
2022/09/14 06:12:21;;;;;;;10.18;4.63;;;17.30;99.90;;;;;;5015546;28;20029;-71
2022/09/14 06:14:47;;;;;;;12.90;5.28;;;17.20;99.90;;;;;;5015691;28;20478;-71
2022/09/14 06:17:12;;;;;;;11.77;4.78;;;17.20;99.90;;;;;;5016005;28;20030;-72
2022/09/14 06:19:38;;;;;;;16.45;4.50;;;17.40;99.90;;;;;;5015849;28;20021;-71
2022/09/14 06:22:04;;;;;;;9.60;4.60;;;17.50;99.90;;;;;;5015516;28;20025;-71
2022/09/14 06:24:30;;;;;;;12.38;5.15;;;17.50;99.90;;;;;;5014162;28;20026;-71
2022/09/14 06:26:55;;;;;;;16.30;5.18;;;17.40;99.90;;;;;;5015377;28;20176;-71
2022/09/14 06:29:21;;;;;;;10.30;4.57;;;17.40;99.90;;;;;;5015497;28;20028;-72
2022/09/14 06:31:47;;;;;;;12.13;5.65;;;17.30;99.90;;;;;;5015413;28;20095;-72
2022/09/14 06:34:12;;;;;;;10.50;4.97;;;17.50;99.90;;;;;;5015491;28;20044;-71
2022/09/14 06:36:38;;;;;;;14.25;6.53;;;17.30;99.90;;;;;;5015446;28;20108;-72
2022/09/14 06:39:04;;;;;;;17.63;5.65;;;17.10;99.90;;;;;;5015008;28;20485;-71
2022/09/14 06:41:31;;;;;;;12.63;5.90;;;17.10;99.90;;;;;;5015439;28;20041;-71
2022/09/14 06:43:59;;;;;;;11.48;4.95;;;17.20;99.90;;;;;;5014828;28;20048;-72
2022/09/14 06:46:28;;;;;;;10.07;5.43;;;17.20;99.90;;;;;;5014417;28;20379;-72
2022/09/14 06:49:21;;;;;;;11.10;5.70;;;17.30;99.90;;;;;;5015385;28;20029;-71
2022/09/14 06:51:49;;;;;;;9.02;5.55;;;17.40;99.90;;;;;;5015352;28;20037;-72
2022/09/14 06:54:16;;;;;;;14.93;5.78;;;17.20;99.90;;;;;;5014630;28;20036;-70
2022/09/14 06:56:43;;;;;;;11.35;5.85;;;17.10;99.90;;;;;;5015325;28;20034;-72
2022/09/14 06:59:11;;;;;;;17.52;6.22;;;17.50;99.90;;;;;;5014912;28;20021;-71
2022/09/14 07:01:38;;;;;;;15.35;6.88;;;17.50;99.90;;;;;;5015119;28;20042;-71
2022/09/14 07:04:04;;;;;;;14.77;6.47;;;17.50;99.90;;;;;;5015079;28;20034;-71
2022/09/14 07:06:39;;;;;;;11.13;5.85;;;17.40;99.90;;;;;;5014845;28;20034;-71
2022/09/14 07:09:05;;;;;;;16.42;6.75;;;17.20;99.90;;;;;;5014689;28;20475;-72
2022/09/14 07:11:31;;;;;;;13.00;6.40;;;17.30;99.90;;;;;;5014756;28;20117;-72
2022/09/14 07:14:01;;;;;;;18.25;7.97;;;17.00;99.90;;;;;;5014870;28;20100;-72
2022/09/14 07:16:28;;;;;;;14.85;7.38;;;17.00;99.90;;;;;;5014560;28;20084;-71
2022/09/14 07:18:55;;;;;;;16.73;7.78;;;16.70;99.90;;;;;;5013774;28;20018;-71
2022/09/14 07:21:22;;;;;;;15.40;7.63;;;17.00;99.90;;;;;;5014509;28;20395;-71
2022/09/14 07:23:48;;;;;;;18.75;6.30;;;16.80;99.90;;;;;;5014413;28;20036;-72
2022/09/14 07:26:25;;;;;;;17.30;7.20;;;17.00;99.90;;;;;;5014614;28;20025;-71
2022/09/14 07:28:57;;;;;;;13.07;5.90;;;17.20;99.90;;;;;;5014399;28;20104;-71
2022/09/14 07:31:28;;;;;;;13.85;6.93;;;16.90;99.90;;;;;;5015089;28;20041;-71
2022/09/14 07:33:55;;;;;;;;;;;16.80;99.90;;;;;;5014909;28;20096;-71
2022/09/14 07:36:22;;;;;;;13.80;6.80;;;16.80;99.90;;;;;;5014212;28;19972;-71
2022/09/14 07:38:48;;;;;;;17.70;7.82;;;16.90;99.90;;;;;;5014169;28;20030;-71
2022/09/14 07:41:14;;;;;;;16.13;7.25;;;16.90;99.90;;;;;;5014457;28;20084;-71
2022/09/14 07:43:40;;;;;;;16.48;7.53;;;16.80;99.90;;;;;;5013905;28;20018;-71
2022/09/14 07:46:06;;;;;;;12.07;7.15;;;16.90;99.90;;;;;;5014239;28;20433;-72
2022/09/14 07:48:33;;;;;;;11.20;5.32;;;16.90;99.90;;;;;;5014277;28;20033;-72
2022/09/14 07:51:10;;;;;;;16.27;6.00;;;16.90;99.90;;;;;;5014011;28;20030;-71
2022/09/14 07:53:38;;;;;;;10.98;4.75;;;16.70;99.90;;;;;;5013915;28;20038;-71
2022/09/14 07:56:06;;;;;;;8.90;3.65;;;16.80;99.90;;;;;;5013758;28;20022;-71
2022/09/14 07:58:32;;;;;;;13.40;3.63;;;16.90;99.90;;;;;;5013897;28;20029;-72
2022/09/14 08:00:59;;;;;;;8.52;4.18;;;16.80;99.90;;;;;;5012788;28;20034;-71
2022/09/14 08:03:27;;;;;;;8.05;3.30;;;16.90;99.90;;;;;;5013968;28;20038;-71
2022/09/14 08:06:01;;;;;;;9.32;3.28;;;17.00;99.90;;;;;;5013695;28;20092;-72
2022/09/14 08:08:29;;;;;;;9.02;3.45;;;17.00;99.90;;;;;;5013766;28;20386;-72
2022/09/14 08:10:57;;;;;;;5.68;2.95;;;17.00;99.90;;;;;;5014054;28;20030;-71
2022/09/14 08:13:22;;;;;;;6.32;3.10;;;17.10;99.90;;;;;;5013508;28;20088;-70
2022/09/14 08:15:48;;;;;;;6.00;2.92;;;17.20;99.90;;;;;;5014101;28;20430;-72
2022/09/14 08:18:14;;;;;;;6.93;2.80;;;17.00;99.90;;;;;;5013871;28;20018;-71
2022/09/14 08:20:40;;;;;;;6.50;2.50;;;17.00;99.90;;;;;;5013647;28;20470;-71
2022/09/14 08:23:05;;;;;;;6.80;2.88;;;16.90;99.90;;;;;;5013547;28;20044;-71
2022/09/14 08:25:31;;;;;;;7.22;3.03;;;16.80;99.90;;;;;;5013727;28;20486;-72
2022/09/14 08:27:57;;;;;;;6.45;2.75;;;16.70;99.90;;;;;;5013791;28;20556;-68
2022/09/14 08:30:23;;;;;;;4.85;2.58;;;16.80;99.90;;;;;;5013507;28;20017;-68
2022/09/14 08:32:48;;;;;;;5.22;2.67;;;17.00;99.90;;;;;;5013104;28;20056;-68
2022/09/14 08:35:15;;;;;;;3.25;2.42;;;17.10;99.90;;;;;;5013276;28;20111;-68
2022/09/14 08:37:41;;;;;;;3.90;2.47;;;17.00;99.90;;;;;;5006803;28;20034;-68
2022/09/14 08:40:10;;;;;;;2.88;2.58;;;17.20;99.90;;;;;;4999553;28;20050;-67
2022/09/14 08:42:37;;;;;;;5.47;2.67;;;17.30;99.90;;;;;;4995319;28;20018;-68
2022/09/14 08:45:05;;;;;;;5.13;2.65;;;17.20;99.90;;;;;;5005403;28;20058;-68
2022/09/14 08:47:35;;;;;;;4.28;2.97;;;17.20;99.90;;;;;;4999330;28;20054;-68
2022/09/14 08:50:20;;;;;;;4.80;3.60;;;17.20;99.90;;;;;;4995030;28;20046;-68
2022/09/14 08:52:54;;;;;;;6.68;4.18;;;17.50;99.90;;;;;;4993292;28;20031;-67
2022/09/14 08:55:33;;;;;;;6.03;4.03;;;17.50;99.90;;;;;;4998851;28;20049;-67
2022/09/14 08:58:20;;;;;;;9.68;3.67;;;17.60;99.90;;;;;;5005666;28;20363;-68
2022/09/14 09:00:52;;;;;;;7.88;4.28;;;17.70;99.90;;;;;;5008435;28;20030;-68
2022/09/14 09:04:11;;;;;;;6.97;3.90;;;17.80;99.90;;;;;;5009879;28;20186;-67
2022/09/14 09:06:41;;;;;;;8.88;4.60;;;17.90;99.90;;;;;;4952695;28;20429;-68
2022/09/14 09:09:52;;;;;;;5.85;4.43;;;17.80;99.90;;;;;;4990771;28;20050;-68
2022/09/14 09:12:27;;;;;;;7.28;4.93;;;17.60;99.90;;;;;;5009736;28;20038;-67
2022/09/14 09:14:56;;;;;;;7.53;5.40;;;17.80;99.90;;;;;;5012784;28;20048;-67
2022/09/14 09:17:42;;;;;;;7.78;5.03;;;17.60;99.90;;;;;;5013050;28;20494;-67
2022/09/14 09:20:22;;;;;;;6.78;4.80;;;17.70;99.90;;;;;;5011696;28;20490;-67
2022/09/14 09:23:06;;;;;;;7.15;5.32;;;17.60;99.90;;;;;;5012283;28;20234;-67
2022/09/14 09:25:58;;;;;;;7.97;5.95;;;17.50;99.90;;;;;;5012557;28;20491;-67
2022/09/14 09:28:27;;;;;;;10.18;6.43;;;17.60;99.90;;;;;;5013030;28;20038;-67
2022/09/14 09:30:59;;;;;;;7.95;5.78;;;17.80;99.90;;;;;;5012664;28;20112;-67
2022/09/14 09:33:40;;;;;;;16.77;12.80;;;17.80;99.90;;;;;;5011146;28;20038;-67
2022/09/14 09:36:14;;;;;;;15.95;11.90;;;17.60;99.90;;;;;;5011519;28;20022;-67
2022/09/14 09:38:41;;;;;;;15.23;10.57;;;17.40;99.90;;;;;;5011527;28;20386;-67
2022/09/14 09:41:23;;;;;;;8.50;7.40;;;17.30;99.90;;;;;;5011538;28;20029;-67
2022/09/14 09:43:56;;;;;;;;;;;17.30;99.90;;;;;;5013145;28;20116;-67
2022/09/14 09:46:22;;;;;;;8.93;3.33;;;17.10;99.90;;;;;;5012983;28;19968;-67
2022/09/14 09:48:48;;;;;;;7.25;3.63;;;16.90;99.90;;;;;;5012315;28;20106;-66
2022/09/14 09:51:25;;;;;;;14.57;6.90;;;16.90;99.90;;;;;;5012530;28;20029;-67
2022/09/14 09:53:54;;;;;;;15.10;9.48;;;16.90;99.90;;;;;;5012184;28;20042;-67
2022/09/14 09:56:27;;;;;;;7.35;5.45;;;17.00;99.90;;;;;;5012561;28;20058;-67
2022/09/14 09:58:53;;;;;;;5.47;3.88;;;17.10;99.90;;;;;;5012566;28;20414;-67
2022/09/14 10:01:34;;;;;;;8.93;4.40;;;16.90;99.90;;;;;;5012057;28;20026;-67
2022/09/14 10:04:13;;;;;;;14.75;5.13;;;17.00;99.90;;;;;;5012492;28;20068;-68
2022/09/14 10:06:57;;;;;;;8.35;5.15;;;17.10;99.90;;;;;;5012397;28;20048;-67
2022/09/14 10:09:26;;;;;;;6.68;4.47;;;17.30;99.90;;;;;;5012607;28;20034;-67
2022/09/14 10:12:02;;;;;;;5.80;2.72;;;17.20;99.90;;;;;;5012231;28;20394;-67
2022/09/14 10:14:36;;;;;;;8.07;2.75;;;17.00;99.90;;;;;;5012420;28;20033;-67
2022/09/14 10:17:22;;;;;;;5.70;2.50;;;16.90;99.90;;;;;;5011989;28;20075;-67
2022/09/14 10:19:50;;;;;;;5.03;2.10;;;16.80;99.90;;;;;;5014031;28;20042;-67
2022/09/14 10:22:23;;;;;;;5.75;2.40;;;16.60;99.90;;;;;;5015590;28;20037;-67
2022/09/14 10:25:19;;;;;;;3.53;1.83;;;16.50;99.90;;;;;;5015551;28;20080;-67
2022/09/14 10:27:55;;;;;;;6.85;1.88;;;16.40;99.90;;;;;;5014536;28;20033;-67
2022/09/14 10:30:22;;;;;;;2.72;1.17;;;16.40;99.90;;;;;;5015092;28;20041;-66
2022/09/14 10:32:54;;;;;;;6.28;1.48;;;16.40;99.90;;;;;;5015524;28;20018;-67
2022/09/14 10:35:21;;;;;;;;;;;16.70;99.90;;;;;;5015876;28;20065;-66
2022/09/14 10:37:56;;;;;;;3.63;1.25;;;16.70;99.90;;;;;;5015659;28;19984;-67
2022/09/14 10:40:44;;;;;;;7.38;1.17;;;16.60;99.90;;;;;;5015441;28;20547;-67
2022/09/14 10:43:10;;;;;;;5.70;1.00;;;16.70;99.90;;;;;;5015589;28;20025;-67
2022/09/14 10:46:00;;;;;;;3.10;1.10;;;16.60;99.90;;;;;;5014825;28;20394;-67
2022/09/14 10:48:40;;;;;;;3.90;1.90;;;16.80;99.90;;;;;;5015274;28;20061;-67
2022/09/14 10:51:17;;;;;;;9.60;1.55;;;17.20;99.90;;;;;;5015180;28;20052;-67
2022/09/14 10:53:58;;;;;;;4.88;1.67;;;17.40;99.90;;;;;;5015214;28;20025;-67
2022/09/14 10:56:46;;;;;;;6.05;1.55;;;17.40;99.90;;;;;;5002709;28;20482;-67
2022/09/14 10:59:50;;;;;;;4.43;1.60;;;17.40;99.90;;;;;;5014698;28;20022;-67
2022/09/14 11:02:28;;;;;;;7.97;2.13;;;17.40;99.90;;;;;;5014188;28;20142;-67
2022/09/14 11:05:03;;;;;;;3.55;2.28;;;17.30;99.90;;;;;;5002346;28;20395;-67
2022/09/14 11:08:02;;;;;;;6.05;1.90;;;17.30;99.90;;;;;;5015122;28;20037;-67
2022/09/14 11:10:42;;;;;;;3.15;1.85;;;17.40;99.90;;;;;;5002611;28;20053;-67
2022/09/14 11:13:36;;;;;;;6.38;2.28;;;17.50;99.90;;;;;;5014337;28;20022;-68
2022/09/14 11:16:39;;;;;;;4.30;2.83;;;17.20;99.90;;;;;;5014741;28;20088;-68
2022/09/14 11:19:45;;;;;;;5.72;2.50;;;17.40;99.90;;;;;;5003401;28;20093;-66
2022/09/14 11:22:23;;;;;;;6.35;2.45;;;17.50;99.90;;;;;;5014355;28;20398;-66
2022/09/14 11:25:02;;;;;;;3.63;2.03;;;17.20;99.90;;;;;;5014633;28;20030;-68
2022/09/14 11:27:47;;;;;;;4.22;1.70;;;17.10;99.90;;;;;;5002064;28;20120;-66
2022/09/14 11:30:19;;;;;;;5.78;2.08;;;17.20;99.90;;;;;;5013886;28;20042;-69
2022/09/14 11:32:50;;;;;;;;;;;17.30;99.90;;;;;;5014209;28;20414;-67
2022/09/14 11:35:30;;;;;;;5.93;2.22;;;17.20;99.90;;;;;;5014469;28;19913;-69
2022/09/14 11:38:00;;;;;;;4.22;2.03;;;17.30;99.90;;;;;;5014353;28;20045;-69
2022/09/14 11:40:47;;;;;;;3.53;1.60;;;17.40;99.90;;;;;;5014118;28;20414;-66
2022/09/14 11:43:19;;;;;;;4.80;1.98;;;17.20;99.90;;;;;;5013893;28;20164;-67
2022/09/14 11:45:49;;;;;;;8.23;2.42;;;17.20;99.90;;;;;;5014292;28;20041;-68
2022/09/14 11:48:26;;;;;;;7.13;2.20;;;17.20;99.90;;;;;;5012864;28;20037;-68
2022/09/14 11:51:02;;;;;;;3.15;1.63;;;17.20;99.90;;;;;;5014084;28;20032;-66
2022/09/14 11:53:30;;;;;;;4.30;2.00;;;16.90;99.90;;;;;;5014106;28;20088;-66
2022/09/14 11:55:55;;;;;;;3.75;2.25;;;16.80;99.90;;;;;;5013712;28;20022;-66
2022/09/14 11:58:25;;;;;;;6.38;2.25;;;16.80;99.90;;;;;;5013724;28;20040;-66
2022/09/14 12:00:50;;;;;;;2.70;2.15;;;16.60;99.90;;;;;;5013873;28;20030;-66
2022/09/14 12:03:21;;;;;;;4.60;2.25;;;17.00;99.90;;;;;;5013840;28;20030;-66
2022/09/14 12:05:48;;;;;;;7.82;2.28;;;16.90;99.90;;;;;;5013921;28;20057;-66
2022/09/14 12:08:34;;;;;;;6.88;2.25;;;16.90;99.90;;;;;;5013779;28;20112;-66
2022/09/14 12:11:03;;;;;;;5.68;2.33;;;16.90;99.90;;;;;;5013757;28;20034;-66
2022/09/14 12:13:29;;;;;;;6.07;2.33;;;17.00;99.90;;;;;;5013077;28;20029;-66
2022/09/14 12:16:03;;;;;;;3.65;2.22;;;16.80;99.90;;;;;;5012527;28;20034;-66
2022/09/14 12:18:30;;;;;;;6.57;2.55;;;16.70;99.90;;;;;;5013582;28;20022;-67
2022/09/14 12:21:00;;;;;;;5.45;2.13;;;16.60;99.90;;;;;;5013806;28;20372;-67
2022/09/14 12:23:32;;;;;;;5.22;2.65;;;16.60;99.90;;;;;;5013549;28;20470;-67
2022/09/14 12:26:09;;;;;;;5.53;2.35;;;16.50;99.90;;;;;;5013616;28;20064;-68
2022/09/14 12:28:38;;;;;;;6.78;2.83;;;16.60;99.90;;;;;;5013255;28;20034;-68
2022/09/14 12:31:08;;;;;;;4.80;2.90;;;16.70;99.90;;;;;;5013345;28;20050;-68
2022/09/14 12:33:34;;;;;;;6.50;3.08;;;16.70;99.90;;;;;;5013169;28;20095;-68
2022/09/14 12:36:09;;;;;;;5.32;4.30;;;16.80;99.90;;;;;;5013292;28;20421;-68
2022/09/14 12:38:40;;;;;;;6.70;4.65;;;17.10;99.90;;;;;;5001203;28;20038;-68
2022/09/14 12:41:09;;;;;;;6.20;4.72;;;17.40;99.90;;;;;;5006655;28;20034;-68
2022/09/14 12:43:34;;;;;;;7.65;4.57;;;17.60;99.90;;;;;;5012568;28;20040;-68
2022/09/14 12:46:20;;;;;;;8.18;4.38;;;17.90;99.90;;;;;;5013033;28;20014;-68
2022/09/14 12:48:46;;;;;;;9.18;3.92;;;17.80;99.90;;;;;;5012972;28;20054;-68
2022/09/14 12:54:17;;;;;;;6.53;3.30;;;17.40;99.90;;;;;;5012796;28;20387;-68
2022/09/14 12:57:20;;;;;;;7.68;3.40;;;17.40;99.90;;;;;;5012938;28;20029;-68
2022/09/14 13:00:00;;;;;;;5.43;3.20;;;17.00;99.90;;;;;;5000298;28;20026;-68
2022/09/14 13:02:47;;;;;;;9.45;4.32;;;16.70;99.90;;;;;;5012654;28;20041;-68
2022/09/14 13:05:16;;;;;;;6.65;4.15;;;16.80;99.90;;;;;;5011457;28;20038;-68
2022/09/14 13:07:43;;;;;;;4.15;3.30;;;17.00;99.90;;;;;;5013220;28;20030;-68
2022/09/14 13:10:33;;;;;;;6.65;3.95;;;17.00;99.90;;;;;;5012359;28;20040;-69